sensor_id;sensor_type;location;lat;lon;timestamp;pressure;altitude;pressure_sealevel;temperature;humidity
15263;BME280;7733;51.554;13.590;2023-09-19T00:00:42;99655.94;;;19.93;86.93
15263;BME280;7733;51.554;13.590;2023-09-19T00:03:10;99655.19;;;20.72;83.95
15263;BME280;7733;51.554;13.590;2023-09-19T00:05:38;99648.63;;;20.90;81.48
15263;BME280;7733;51.554;13.590;2023-09-19T00:08:05;99647.44;;;20.94;80.43
15263;BME280;7733;51.554;13.590;2023-09-19T00:10:33;99653.94;;;20.90;80.90
15263;BME280;7733;51.554;13.590;2023-09-19T00:13:03;99647.88;;;19.81;87.09
15263;BME280;7733;51.554;13.590;2023-09-19T00:15:47;99648.28;;;20.16;86.48
15263;BME280;7733;51.554;13.590;2023-09-19T00:18:18;99639.56;;;19.58;89.30
15263;BME280;7733;51.554;13.590;2023-09-19T00:20:46;99635.00;;;19.60;90.23
15263;BME280;7733;51.554;13.590;2023-09-19T00:23:13;99633.72;;;19.80;89.38
15263;BME280;7733;51.554;13.590;2023-09-19T00:25:39;99625.38;;;20.13;87.11
15263;BME280;7733;51.554;13.590;2023-09-19T00:28:06;99627.16;;;19.86;88.18
15263;BME280;7733;51.554;13.590;2023-09-19T00:30:34;99620.13;;;20.39;85.05
15263;BME280;7733;51.554;13.590;2023-09-19T00:33:00;99613.91;;;19.98;87.83
15263;BME280;7733;51.554;13.590;2023-09-19T00:35:26;99626.53;;;20.09;87.33
15263;BME280;7733;51.554;13.590;2023-09-19T00:37:56;99621.75;;;20.14;86.65
15263;BME280;7733;51.554;13.590;2023-09-19T00:40:22;99617.34;;;20.27;86.15
15263;BME280;7733;51.554;13.590;2023-09-19T00:42:49;99609.66;;;20.35;85.14
15263;BME280;7733;51.554;13.590;2023-09-19T00:45:17;99610.03;;;20.17;86.10
15263;BME280;7733;51.554;13.590;2023-09-19T00:47:51;99615.41;;;20.29;85.26
15263;BME280;7733;51.554;13.590;2023-09-19T00:50:20;99615.28;;;20.45;83.77
15263;BME280;7733;51.554;13.590;2023-09-19T00:52:48;99615.84;;;20.23;84.92
15263;BME280;7733;51.554;13.590;2023-09-19T00:55:16;99630.97;;;20.35;85.04
15263;BME280;7733;51.554;13.590;2023-09-19T00:57:45;99642.75;;;19.92;86.85
15263;BME280;7733;51.554;13.590;2023-09-19T01:00:13;99630.00;;;20.51;84.25
15263;BME280;7733;51.554;13.590;2023-09-19T01:02:42;99632.78;;;20.49;84.15
15263;BME280;7733;51.554;13.590;2023-09-19T01:05:10;99630.75;;;20.53;83.92
15263;BME280;7733;51.554;13.590;2023-09-19T01:07:36;99632.66;;;20.24;84.68
15263;BME280;7733;51.554;13.590;2023-09-19T01:10:08;99641.81;;;19.50;89.23
15263;BME280;7733;51.554;13.590;2023-09-19T01:21:28;99634.03;;;20.44;82.98
15263;BME280;7733;51.554;13.590;2023-09-19T01:29:52;99623.03;;;20.21;84.91
15263;BME280;7733;51.554;13.590;2023-09-19T01:32:21;99637.22;;;19.95;86.00
15263;BME280;7733;51.554;13.590;2023-09-19T01:34:55;99629.28;;;19.52;88.51
15263;BME280;7733;51.554;13.590;2023-09-19T01:37:30;99630.03;;;19.83;87.32
15263;BME280;7733;51.554;13.590;2023-09-19T01:40:08;99625.69;;;19.67;88.27
15263;BME280;7733;51.554;13.590;2023-09-19T01:51:07;99618.34;;;19.71;89.35
15263;BME280;7733;51.554;13.590;2023-09-19T01:54:00;99621.88;;;19.57;89.80
15263;BME280;7733;51.554;13.590;2023-09-19T01:56:40;99620.75;;;19.47;90.12
15263;BME280;7733;51.554;13.590;2023-09-19T01:59:13;99623.00;;;19.53;90.33
15263;BME280;7733;51.554;13.590;2023-09-19T02:01:44;99622.63;;;19.59;89.86
15263;BME280;7733;51.554;13.590;2023-09-19T02:04:11;99621.66;;;19.89;88.61
15263;BME280;7733;51.554;13.590;2023-09-19T02:06:41;99630.78;;;19.85;88.15
15263;BME280;7733;51.554;13.590;2023-09-19T02:09:07;99640.53;;;19.98;88.05
15263;BME280;7733;51.554;13.590;2023-09-19T02:11:34;99638.44;;;20.30;86.26
15263;BME280;7733;51.554;13.590;2023-09-19T02:14:01;99650.78;;;20.46;85.10
15263;BME280;7733;51.554;13.590;2023-09-19T02:16:28;99658.97;;;20.43;85.43
15263;BME280;7733;51.554;13.590;2023-09-19T02:18:54;99661.34;;;20.60;83.94
15263;BME280;7733;51.554;13.590;2023-09-19T02:21:20;99663.91;;;20.61;83.68
15263;BME280;7733;51.554;13.590;2023-09-19T02:23:47;99653.78;;;20.27;84.89
15263;BME280;7733;51.554;13.590;2023-09-19T02:26:13;99657.88;;;20.72;82.24
15263;BME280;7733;51.554;13.590;2023-09-19T02:28:40;99659.91;;;20.81;81.65
15263;BME280;7733;51.554;13.590;2023-09-19T02:31:06;99657.72;;;20.61;82.33
15263;BME280;7733;51.554;13.590;2023-09-19T02:33:32;99660.84;;;20.80;81.61
15263;BME280;7733;51.554;13.590;2023-09-19T02:35:59;99667.81;;;20.83;81.34
15263;BME280;7733;51.554;13.590;2023-09-19T02:38:25;99680.72;;;20.89;80.46
15263;BME280;7733;51.554;13.590;2023-09-19T02:40:55;99673.53;;;20.77;81.47
15263;BME280;7733;51.554;13.590;2023-09-19T02:43:22;99679.66;;;20.52;82.67
15263;BME280;7733;51.554;13.590;2023-09-19T02:45:49;99676.84;;;20.41;83.66
15263;BME280;7733;51.554;13.590;2023-09-19T02:48:16;99675.66;;;20.18;85.30
15263;BME280;7733;51.554;13.590;2023-09-19T02:50:42;99671.84;;;19.52;89.18
15263;BME280;7733;51.554;13.590;2023-09-19T02:53:10;99670.81;;;19.55;90.10
15263;BME280;7733;51.554;13.590;2023-09-19T02:55:38;99664.88;;;19.92;89.17
15263;BME280;7733;51.554;13.590;2023-09-19T02:58:06;99666.66;;;19.65;90.42
15263;BME280;7733;51.554;13.590;2023-09-19T03:00:41;99673.13;;;20.02;89.26
15263;BME280;7733;51.554;13.590;2023-09-19T03:03:08;99673.38;;;19.56;91.20
15263;BME280;7733;51.554;13.590;2023-09-19T03:05:35;99670.63;;;19.86;90.10
15263;BME280;7733;51.554;13.590;2023-09-19T03:08:01;99677.00;;;19.84;90.21
15263;BME280;7733;51.554;13.590;2023-09-19T03:10:27;99682.38;;;19.82;90.24
15263;BME280;7733;51.554;13.590;2023-09-19T03:12:54;99691.38;;;20.22;88.23
15263;BME280;7733;51.554;13.590;2023-09-19T03:15:20;99687.97;;;20.06;88.67
15263;BME280;7733;51.554;13.590;2023-09-19T03:17:48;99690.31;;;19.84;89.82
15263;BME280;7733;51.554;13.590;2023-09-19T03:20:15;99682.88;;;19.89;89.38
15263;BME280;7733;51.554;13.590;2023-09-19T03:22:44;99680.41;;;19.86;90.56
15263;BME280;7733;51.554;13.590;2023-09-19T03:25:09;99681.47;;;19.83;90.17
15263;BME280;7733;51.554;13.590;2023-09-19T03:27:38;99683.06;;;19.71;91.19
15263;BME280;7733;51.554;13.590;2023-09-19T03:30:06;99681.56;;;19.67;90.96
15263;BME280;7733;51.554;13.590;2023-09-19T03:32:37;99682.88;;;19.89;90.01
15263;BME280;7733;51.554;13.590;2023-09-19T03:35:03;99691.31;;;19.95;89.51
15263;BME280;7733;51.554;13.590;2023-09-19T03:37:32;99693.53;;;19.89;89.63
15263;BME280;7733;51.554;13.590;2023-09-19T03:40:01;99702.56;;;19.86;89.70
15263;BME280;7733;51.554;13.590;2023-09-19T03:42:31;99702.06;;;19.80;90.20
15263;BME280;7733;51.554;13.590;2023-09-19T03:44:57;99694.44;;;20.02;88.73
15263;BME280;7733;51.554;13.590;2023-09-19T03:47:22;99698.41;;;20.23;87.94
15263;BME280;7733;51.554;13.590;2023-09-19T03:49:48;99698.22;;;20.12;88.09
15263;BME280;7733;51.554;13.590;2023-09-19T03:52:14;99698.66;;;19.78;89.63
15263;BME280;7733;51.554;13.590;2023-09-19T03:54:42;99697.56;;;20.09;88.11
15263;BME280;7733;51.554;13.590;2023-09-19T03:57:08;99700.81;;;20.41;85.68
15263;BME280;7733;51.554;13.590;2023-09-19T03:59:34;99709.41;;;20.31;85.85
15263;BME280;7733;51.554;13.590;2023-09-19T04:02:01;99716.06;;;19.69;89.63
15263;BME280;7733;51.554;13.590;2023-09-19T04:04:27;99713.16;;;20.00;87.96
15263;BME280;7733;51.554;13.590;2023-09-19T04:06:54;99707.22;;;19.83;88.96
15263;BME280;7733;51.554;13.590;2023-09-19T04:09:20;99703.91;;;19.65;89.74
15263;BME280;7733;51.554;13.590;2023-09-19T04:11:46;99711.38;;;19.44;90.53
15263;BME280;7733;51.554;13.590;2023-09-19T04:14:11;99711.72;;;19.38;91.57
15263;BME280;7733;51.554;13.590;2023-09-19T04:16:37;99712.78;;;19.50;90.47
15263;BME280;7733;51.554;13.590;2023-09-19T04:19:04;99723.56;;;19.77;89.41
15263;BME280;7733;51.554;13.590;2023-09-19T04:21:31;99731.88;;;19.28;91.74
15263;BME280;7733;51.554;13.590;2023-09-19T04:23:56;99729.16;;;19.58;90.27
15263;BME280;7733;51.554;13.590;2023-09-19T04:26:22;99730.22;;;19.55;90.72
15263;BME280;7733;51.554;13.590;2023-09-19T04:28:48;99729.81;;;19.61;89.51
15263;BME280;7733;51.554;13.590;2023-09-19T04:31:13;99739.69;;;19.45;90.68
15263;BME280;7733;51.554;13.590;2023-09-19T04:33:39;99735.56;;;19.25;91.63
15263;BME280;7733;51.554;13.590;2023-09-19T04:36:05;99737.97;;;19.44;90.92
15263;BME280;7733;51.554;13.590;2023-09-19T04:38:33;99735.75;;;19.36;91.30
15263;BME280;7733;51.554;13.590;2023-09-19T04:40:59;99735.75;;;19.36;91.54
15263;BME280;7733;51.554;13.590;2023-09-19T04:43:26;99751.50;;;19.55;90.24
15263;BME280;7733;51.554;13.590;2023-09-19T04:45:52;99754.06;;;19.57;90.09
15263;BME280;7733;51.554;13.590;2023-09-19T04:48:22;99757.94;;;19.51;90.03
15263;BME280;7733;51.554;13.590;2023-09-19T04:50:50;99770.28;;;19.52;90.62
15263;BME280;7733;51.554;13.590;2023-09-19T04:53:18;99766.22;;;19.75;88.76
15263;BME280;7733;51.554;13.590;2023-09-19T04:55:50;99769.50;;;19.50;90.21
15263;BME280;7733;51.554;13.590;2023-09-19T04:58:16;99779.63;;;19.73;88.84
15263;BME280;7733;51.554;13.590;2023-09-19T05:00:43;99773.00;;;19.36;90.27
15263;BME280;7733;51.554;13.590;2023-09-19T05:03:09;99781.72;;;19.54;89.95
15263;BME280;7733;51.554;13.590;2023-09-19T05:05:34;99775.56;;;19.24;91.33
15263;BME280;7733;51.554;13.590;2023-09-19T05:08:00;99784.88;;;19.31;90.87
15263;BME280;7733;51.554;13.590;2023-09-19T05:10:26;99781.88;;;19.51;89.52
15263;BME280;7733;51.554;13.590;2023-09-19T05:12:55;99784.53;;;19.21;91.13
15263;BME280;7733;51.554;13.590;2023-09-19T05:15:20;99790.38;;;19.28;90.84
15263;BME280;7733;51.554;13.590;2023-09-19T05:17:50;99797.16;;;19.18;91.06
15263;BME280;7733;51.554;13.590;2023-09-19T05:20:17;99797.63;;;19.10;91.41
15263;BME280;7733;51.554;13.590;2023-09-19T05:23:03;99796.78;;;19.09;91.49
15263;BME280;7733;51.554;13.590;2023-09-19T05:25:35;99800.75;;;19.02;92.26
15263;BME280;7733;51.554;13.590;2023-09-19T05:28:06;99813.25;;;19.00;92.47
15263;BME280;7733;51.554;13.590;2023-09-19T05:30:33;99815.22;;;18.97;92.15
15263;BME280;7733;51.554;13.590;2023-09-19T05:33:05;99816.50;;;19.05;92.15
15263;BME280;7733;51.554;13.590;2023-09-19T05:35:31;99818.47;;;19.02;92.20
15263;BME280;7733;51.554;13.590;2023-09-19T05:37:57;99822.03;;;18.87;92.64
15263;BME280;7733;51.554;13.590;2023-09-19T05:40:24;99821.38;;;19.13;92.05
15263;BME280;7733;51.554;13.590;2023-09-19T05:42:50;99814.44;;;19.10;91.85
15263;BME280;7733;51.554;13.590;2023-09-19T05:45:17;99825.06;;;19.10;91.85
15263;BME280;7733;51.554;13.590;2023-09-19T05:47:53;99821.91;;;19.34;90.62
15263;BME280;7733;51.554;13.590;2023-09-19T05:50:29;99836.09;;;19.19;91.06
15263;BME280;7733;51.554;13.590;2023-09-19T05:52:55;99835.16;;;19.20;90.84
15263;BME280;7733;51.554;13.590;2023-09-19T05:55:23;99830.78;;;19.49;89.63
15263;BME280;7733;51.554;13.590;2023-09-19T05:57:54;99849.59;;;19.15;91.00
15263;BME280;7733;51.554;13.590;2023-09-19T06:00:24;99845.78;;;19.20;91.06
15263;BME280;7733;51.554;13.590;2023-09-19T06:02:56;99844.25;;;19.15;90.84
15263;BME280;7733;51.554;13.590;2023-09-19T06:05:24;99850.16;;;19.21;90.85
15263;BME280;7733;51.554;13.590;2023-09-19T06:07:50;99854.22;;;19.12;91.17
15263;BME280;7733;51.554;13.590;2023-09-19T06:10:18;99849.75;;;19.12;91.10
15263;BME280;7733;51.554;13.590;2023-09-19T06:12:46;99854.72;;;19.19;90.81
15263;BME280;7733;51.554;13.590;2023-09-19T06:15:14;99855.41;;;19.22;90.70
15263;BME280;7733;51.554;13.590;2023-09-19T06:17:55;99860.13;;;19.17;90.78
15263;BME280;7733;51.554;13.590;2023-09-19T06:20:21;99858.88;;;19.38;89.66
15263;BME280;7733;51.554;13.590;2023-09-19T06:22:49;99860.50;;;19.41;88.96
15263;BME280;7733;51.554;13.590;2023-09-19T06:25:16;99871.72;;;19.16;90.40
15263;BME280;7733;51.554;13.590;2023-09-19T06:27:50;99874.59;;;19.43;89.40
15263;BME280;7733;51.554;13.590;2023-09-19T06:30:18;99874.03;;;19.52;89.16
15263;BME280;7733;51.554;13.590;2023-09-19T06:32:44;99878.34;;;19.55;88.34
15263;BME280;7733;51.554;13.590;2023-09-19T06:35:14;99880.16;;;19.54;88.07
15263;BME280;7733;51.554;13.590;2023-09-19T06:37:42;99888.75;;;19.43;88.92
15263;BME280;7733;51.554;13.590;2023-09-19T06:40:13;99883.63;;;19.70;87.61
15263;BME280;7733;51.554;13.590;2023-09-19T06:42:51;99888.63;;;19.61;86.99
15263;BME280;7733;51.554;13.590;2023-09-19T06:45:18;99885.72;;;19.65;86.29
15263;BME280;7733;51.554;13.590;2023-09-19T06:47:45;99886.66;;;19.79;85.59
15263;BME280;7733;51.554;13.590;2023-09-19T06:50:11;99886.75;;;19.63;85.70
15263;BME280;7733;51.554;13.590;2023-09-19T06:52:41;99883.06;;;19.80;85.60
15263;BME280;7733;51.554;13.590;2023-09-19T06:55:07;99890.56;;;19.73;85.30
15263;BME280;7733;51.554;13.590;2023-09-19T06:57:35;99896.66;;;19.75;84.66
15263;BME280;7733;51.554;13.590;2023-09-19T07:00:02;99900.72;;;19.81;85.13
15263;BME280;7733;51.554;13.590;2023-09-19T07:02:28;99907.03;;;19.94;84.56
15263;BME280;7733;51.554;13.590;2023-09-19T07:04:53;99908.72;;;19.81;84.58
15263;BME280;7733;51.554;13.590;2023-09-19T07:07:19;99915.75;;;19.82;84.20
15263;BME280;7733;51.554;13.590;2023-09-19T07:09:45;99913.09;;;19.82;83.95
15263;BME280;7733;51.554;13.590;2023-09-19T07:12:11;99910.84;;;19.90;84.15
15263;BME280;7733;51.554;13.590;2023-09-19T07:14:37;99913.47;;;19.75;83.95
15263;BME280;7733;51.554;13.590;2023-09-19T07:17:03;99922.53;;;19.57;83.57
15263;BME280;7733;51.554;13.590;2023-09-19T07:19:29;99926.72;;;19.61;83.85
15263;BME280;7733;51.554;13.590;2023-09-19T07:21:56;99926.66;;;19.63;83.64
15263;BME280;7733;51.554;13.590;2023-09-19T07:24:25;99935.63;;;19.76;82.57
15263;BME280;7733;51.554;13.590;2023-09-19T07:26:52;99934.91;;;19.88;81.67
15263;BME280;7733;51.554;13.590;2023-09-19T07:29:18;99943.19;;;19.98;81.10
15263;BME280;7733;51.554;13.590;2023-09-19T07:31:44;99940.66;;;20.39;79.72
15263;BME280;7733;51.554;13.590;2023-09-19T07:34:10;99939.13;;;20.07;79.27
15263;BME280;7733;51.554;13.590;2023-09-19T07:36:36;99956.16;;;20.18;78.92
15263;BME280;7733;51.554;13.590;2023-09-19T07:39:04;99959.00;;;20.15;77.99
15263;BME280;7733;51.554;13.590;2023-09-19T07:41:33;99957.69;;;20.36;77.77
15263;BME280;7733;51.554;13.590;2023-09-19T07:43:59;99961.56;;;20.47;77.66
15263;BME280;7733;51.554;13.590;2023-09-19T07:46:25;99962.84;;;20.40;77.40
15263;BME280;7733;51.554;13.590;2023-09-19T07:48:52;99969.66;;;20.45;76.94
15263;BME280;7733;51.554;13.590;2023-09-19T07:51:17;99965.63;;;20.52;77.12
15263;BME280;7733;51.554;13.590;2023-09-19T07:53:43;99972.34;;;20.29;74.33
15263;BME280;7733;51.554;13.590;2023-09-19T07:56:10;99973.50;;;20.40;75.52
15263;BME280;7733;51.554;13.590;2023-09-19T07:58:39;99976.97;;;20.70;73.69
15263;BME280;7733;51.554;13.590;2023-09-19T08:01:07;99970.69;;;20.85;73.48
15263;BME280;7733;51.554;13.590;2023-09-19T08:03:34;99988.94;;;21.06;73.62
15263;BME280;7733;51.554;13.590;2023-09-19T08:06:01;99997.16;;;20.74;71.36
15263;BME280;7733;51.554;13.590;2023-09-19T08:08:27;99993.34;;;20.78;71.40
15263;BME280;7733;51.554;13.590;2023-09-19T08:10:56;100001.72;;;20.72;69.30
15263;BME280;7733;51.554;13.590;2023-09-19T08:13:26;99998.66;;;20.92;69.04
15263;BME280;7733;51.554;13.590;2023-09-19T08:15:52;99996.84;;;21.07;67.90
15263;BME280;7733;51.554;13.590;2023-09-19T08:18:21;99999.97;;;21.14;69.05
15263;BME280;7733;51.554;13.590;2023-09-19T08:20:52;99994.91;;;21.38;68.00
15263;BME280;7733;51.554;13.590;2023-09-19T08:23:18;100001.63;;;20.88;65.94
15263;BME280;7733;51.554;13.590;2023-09-19T08:25:47;99995.91;;;20.80;67.29
15263;BME280;7733;51.554;13.590;2023-09-19T08:28:13;100005.50;;;20.96;66.54
15263;BME280;7733;51.554;13.590;2023-09-19T08:30:45;100002.63;;;21.14;65.70
15263;BME280;7733;51.554;13.590;2023-09-19T08:33:11;100005.81;;;20.92;64.84
15263;BME280;7733;51.554;13.590;2023-09-19T08:35:37;100013.16;;;20.88;65.97
15263;BME280;7733;51.554;13.590;2023-09-19T08:38:05;100010.09;;;20.94;64.87
15263;BME280;7733;51.554;13.590;2023-09-19T08:40:33;100006.06;;;21.02;65.09
15263;BME280;7733;51.554;13.590;2023-09-19T08:43:02;100007.31;;;20.82;64.58
15263;BME280;7733;51.554;13.590;2023-09-19T08:45:28;100007.91;;;20.73;62.75
15263;BME280;7733;51.554;13.590;2023-09-19T08:48:25;100009.50;;;20.61;63.11
15263;BME280;7733;51.554;13.590;2023-09-19T08:51:07;99994.31;;;20.63;61.50
15263;BME280;7733;51.554;13.590;2023-09-19T08:56:10;99999.97;;;21.28;61.14
15263;BME280;7733;51.554;13.590;2023-09-19T08:58:48;100007.41;;;21.23;59.54
15263;BME280;7733;51.554;13.590;2023-09-19T09:01:16;100008.28;;;21.77;59.92
15263;BME280;7733;51.554;13.590;2023-09-19T09:03:43;100001.28;;;21.89;59.95
15263;BME280;7733;51.554;13.590;2023-09-19T09:06:14;100017.25;;;21.76;58.86
15263;BME280;7733;51.554;13.590;2023-09-19T09:08:43;100023.09;;;21.42;58.38
15263;BME280;7733;51.554;13.590;2023-09-19T09:11:09;100019.28;;;21.73;57.94
15263;BME280;7733;51.554;13.590;2023-09-19T09:13:36;100024.56;;;21.87;59.03
15263;BME280;7733;51.554;13.590;2023-09-19T09:16:03;100010.97;;;22.04;56.89
15263;BME280;7733;51.554;13.590;2023-09-19T09:18:29;100010.66;;;21.82;57.80
15263;BME280;7733;51.554;13.590;2023-09-19T09:20:55;100011.22;;;22.39;56.31
15263;BME280;7733;51.554;13.590;2023-09-19T09:23:21;99998.41;;;22.95;57.05
15263;BME280;7733;51.554;13.590;2023-09-19T09:25:55;100006.03;;;22.63;56.05
15263;BME280;7733;51.554;13.590;2023-09-19T09:28:34;100009.53;;;22.51;56.10
15263;BME280;7733;51.554;13.590;2023-09-19T09:31:01;100014.88;;;22.51;56.45
15263;BME280;7733;51.554;13.590;2023-09-19T09:33:35;100018.81;;;21.93;57.98
15263;BME280;7733;51.554;13.590;2023-09-19T09:36:03;100007.91;;;21.96;58.10
15263;BME280;7733;51.554;13.590;2023-09-19T09:38:43;100027.38;;;21.98;58.27
15263;BME280;7733;51.554;13.590;2023-09-19T09:41:09;100029.63;;;21.65;58.55
15263;BME280;7733;51.554;13.590;2023-09-19T09:43:39;100034.72;;;21.41;57.55
15263;BME280;7733;51.554;13.590;2023-09-19T09:46:15;100040.53;;;21.19;55.76
15263;BME280;7733;51.554;13.590;2023-09-19T09:49:04;100040.75;;;21.44;56.31
15263;BME280;7733;51.554;13.590;2023-09-19T09:51:51;100039.84;;;21.85;55.48
15263;BME280;7733;51.554;13.590;2023-09-19T09:54:26;100044.97;;;21.88;55.84
15263;BME280;7733;51.554;13.590;2023-09-19T09:59:54;100033.00;;;22.21;54.71
15263;BME280;7733;51.554;13.590;2023-09-19T10:02:35;100025.78;;;22.48;54.73
15263;BME280;7733;51.554;13.590;2023-09-19T10:05:14;100030.59;;;22.56;53.87
15263;BME280;7733;51.554;13.590;2023-09-19T10:07:47;100024.06;;;22.34;53.90
15263;BME280;7733;51.554;13.590;2023-09-19T10:10:37;100044.53;;;22.08;54.13
15263;BME280;7733;51.554;13.590;2023-09-19T10:15:44;100043.91;;;22.17;55.02
15263;BME280;7733;51.554;13.590;2023-09-19T10:18:21;100037.94;;;22.00;55.08
15263;BME280;7733;51.554;13.590;2023-09-19T10:20:48;100040.97;;;21.81;54.69
15263;BME280;7733;51.554;13.590;2023-09-19T10:23:20;100040.47;;;22.15;54.79
15263;BME280;7733;51.554;13.590;2023-09-19T10:25:52;100054.44;;;22.46;54.78
15263;BME280;7733;51.554;13.590;2023-09-19T10:28:21;100048.66;;;22.52;54.27
15263;BME280;7733;51.554;13.590;2023-09-19T10:30:53;100044.06;;;22.29;52.90
15263;BME280;7733;51.554;13.590;2023-09-19T10:33:22;100042.56;;;22.50;53.31
15263;BME280;7733;51.554;13.590;2023-09-19T10:35:51;100045.25;;;22.50;53.64
15263;BME280;7733;51.554;13.590;2023-09-19T10:38:19;100057.00;;;22.60;52.93
15263;BME280;7733;51.554;13.590;2023-09-19T10:40:50;100042.78;;;22.47;50.69
15263;BME280;7733;51.554;13.590;2023-09-19T10:43:23;100055.28;;;22.34;48.00
15263;BME280;7733;51.554;13.590;2023-09-19T10:45:50;100049.34;;;22.16;46.98
15263;BME280;7733;51.554;13.590;2023-09-19T10:48:19;100044.22;;;22.13;47.35
15263;BME280;7733;51.554;13.590;2023-09-19T10:51:04;100046.72;;;22.29;47.25
15263;BME280;7733;51.554;13.590;2023-09-19T10:53:48;100049.41;;;22.41;46.64
15263;BME280;7733;51.554;13.590;2023-09-19T10:56:30;100048.03;;;22.61;45.93
15263;BME280;7733;51.554;13.590;2023-09-19T10:59:11;100042.38;;;22.53;46.68
15263;BME280;7733;51.554;13.590;2023-09-19T11:01:53;100041.84;;;22.48;46.62
15263;BME280;7733;51.554;13.590;2023-09-19T11:04:31;100045.69;;;22.69;46.97
15263;BME280;7733;51.554;13.590;2023-09-19T11:07:11;100038.09;;;22.63;47.01
15263;BME280;7733;51.554;13.590;2023-09-19T11:09:55;100039.16;;;22.61;46.73
15263;BME280;7733;51.554;13.590;2023-09-19T11:15:07;100044.72;;;22.70;46.48
15263;BME280;7733;51.554;13.590;2023-09-19T11:17:36;100053.41;;;22.99;46.84
15263;BME280;7733;51.554;13.590;2023-09-19T11:30:39;100042.69;;;23.12;42.49
15263;BME280;7733;51.554;13.590;2023-09-19T11:33:26;100034.66;;;23.12;41.90
15263;BME280;7733;51.554;13.590;2023-09-19T11:36:16;100039.91;;;23.01;42.42
15263;BME280;7733;51.554;13.590;2023-09-19T11:43:52;100040.63;;;24.13;41.83
15263;BME280;7733;51.554;13.590;2023-09-19T11:46:21;100039.56;;;23.55;40.40
15263;BME280;7733;51.554;13.590;2023-09-19T11:48:51;100036.66;;;23.71;40.35
15263;BME280;7733;51.554;13.590;2023-09-19T11:51:23;100044.72;;;23.58;39.65
15263;BME280;7733;51.554;13.590;2023-09-19T11:53:56;100048.56;;;23.54;39.92
15263;BME280;7733;51.554;13.590;2023-09-19T11:56:26;100047.13;;;23.37;40.40
15263;BME280;7733;51.554;13.590;2023-09-19T11:58:57;100042.56;;;23.26;40.25
15263;BME280;7733;51.554;13.590;2023-09-19T12:01:34;100047.72;;;23.53;40.66
15263;BME280;7733;51.554;13.590;2023-09-19T12:04:02;100048.16;;;23.60;40.49
15263;BME280;7733;51.554;13.590;2023-09-19T12:06:30;100059.97;;;23.45;38.74
15263;BME280;7733;51.554;13.590;2023-09-19T12:08:58;100061.53;;;23.23;39.45
15263;BME280;7733;51.554;13.590;2023-09-19T12:11:29;100062.56;;;23.33;39.14
15263;BME280;7733;51.554;13.590;2023-09-19T12:13:59;100063.63;;;23.31;39.25
15263;BME280;7733;51.554;13.590;2023-09-19T12:16:27;100070.25;;;23.38;39.49
15263;BME280;7733;51.554;13.590;2023-09-19T12:18:57;100055.31;;;23.10;39.59
15263;BME280;7733;51.554;13.590;2023-09-19T12:21:29;100059.53;;;23.51;39.72
15263;BME280;7733;51.554;13.590;2023-09-19T12:26:45;100058.03;;;23.47;39.47
15263;BME280;7733;51.554;13.590;2023-09-19T12:29:18;100059.09;;;23.57;39.27
15263;BME280;7733;51.554;13.590;2023-09-19T12:31:55;100065.22;;;23.33;39.57
15263;BME280;7733;51.554;13.590;2023-09-19T12:34:30;100067.06;;;23.33;40.02
15263;BME280;7733;51.554;13.590;2023-09-19T12:37:13;100057.84;;;23.37;39.24
15263;BME280;7733;51.554;13.590;2023-09-19T12:39:53;100060.22;;;23.16;38.80
15263;BME280;7733;51.554;13.590;2023-09-19T12:42:40;100055.03;;;23.38;37.70
15263;BME280;7733;51.554;13.590;2023-09-19T12:45:08;100058.84;;;23.60;37.37
15263;BME280;7733;51.554;13.590;2023-09-19T12:47:39;100059.41;;;23.65;37.23
15263;BME280;7733;51.554;13.590;2023-09-19T12:50:13;100058.28;;;23.18;37.90
15263;BME280;7733;51.554;13.590;2023-09-19T12:52:47;100054.16;;;23.51;38.04
15263;BME280;7733;51.554;13.590;2023-09-19T12:55:40;100059.69;;;23.73;37.76
15263;BME280;7733;51.554;13.590;2023-09-19T12:58:14;100063.84;;;23.77;37.30
15263;BME280;7733;51.554;13.590;2023-09-19T13:00:45;100059.75;;;23.48;37.16
15263;BME280;7733;51.554;13.590;2023-09-19T13:03:32;100063.59;;;23.56;38.01
15263;BME280;7733;51.554;13.590;2023-09-19T13:06:03;100059.22;;;23.79;37.01
15263;BME280;7733;51.554;13.590;2023-09-19T13:08:35;100055.56;;;23.07;38.30
15263;BME280;7733;51.554;13.590;2023-09-19T13:11:13;100052.69;;;23.34;37.46
15263;BME280;7733;51.554;13.590;2023-09-19T13:13:50;100054.91;;;23.53;37.83
15263;BME280;7733;51.554;13.590;2023-09-19T13:16:20;100045.50;;;23.47;37.06
15263;BME280;7733;51.554;13.590;2023-09-19T13:18:55;100052.56;;;23.48;37.75
15263;BME280;7733;51.554;13.590;2023-09-19T13:21:33;100041.66;;;23.75;37.27
15263;BME280;7733;51.554;13.590;2023-09-19T13:24:23;100048.56;;;23.54;37.38
15263;BME280;7733;51.554;13.590;2023-09-19T13:26:51;100046.63;;;23.69;37.95
15263;BME280;7733;51.554;13.590;2023-09-19T13:29:17;100045.28;;;24.22;37.78
15263;BME280;7733;51.554;13.590;2023-09-19T13:31:53;100045.13;;;24.12;37.59
15263;BME280;7733;51.554;13.590;2023-09-19T13:34:19;100037.94;;;24.13;37.46
15263;BME280;7733;51.554;13.590;2023-09-19T13:36:46;100035.97;;;24.04;38.49
15263;BME280;7733;51.554;13.590;2023-09-19T13:39:17;100035.84;;;24.29;38.02
15263;BME280;7733;51.554;13.590;2023-09-19T13:41:49;100034.34;;;24.25;38.01
15263;BME280;7733;51.554;13.590;2023-09-19T13:44:15;100036.00;;;24.15;38.41
15263;BME280;7733;51.554;13.590;2023-09-19T13:46:42;100038.91;;;24.12;38.92
15263;BME280;7733;51.554;13.590;2023-09-19T13:49:11;100045.72;;;24.29;38.72
15263;BME280;7733;51.554;13.590;2023-09-19T13:51:37;100039.28;;;23.83;38.83
15263;BME280;7733;51.554;13.590;2023-09-19T13:54:03;100054.81;;;23.78;39.17
15263;BME280;7733;51.554;13.590;2023-09-19T13:56:28;100044.41;;;23.86;38.67
15263;BME280;7733;51.554;13.590;2023-09-19T13:58:56;100045.59;;;23.58;39.57
15263;BME280;7733;51.554;13.590;2023-09-19T14:01:22;100049.47;;;23.78;39.36